createdAt,value
2023-06-11T00:00:56.315Z,92673.00
2023-06-11T00:01:56.373Z,92673.00
2023-06-11T00:02:56.535Z,92673.00
2023-06-11T00:03:56.552Z,92675.00
2023-06-11T00:04:56.598Z,92673.00
2023-06-11T00:05:56.606Z,92671.00
2023-06-11T00:06:56.659Z,92671.00
2023-06-11T00:07:56.724Z,92667.00
2023-06-11T00:08:56.763Z,92669.00
2023-06-11T00:09:56.826Z,92667.00
2023-06-11T00:10:56.872Z,92667.00
2023-06-11T00:11:56.945Z,92667.00
2023-06-11T00:12:56.994Z,92665.00
2023-06-11T00:13:57.042Z,92663.00
2023-06-11T00:14:57.101Z,92665.00
2023-06-11T00:15:57.177Z,92663.00
2023-06-11T00:16:57.226Z,92665.00
2023-06-11T00:17:57.308Z,92663.00
2023-06-11T00:18:57.354Z,92663.00
2023-06-11T00:19:57.343Z,92665.00
2023-06-11T00:20:57.396Z,92665.00
2023-06-11T00:21:57.462Z,92663.00
2023-06-11T00:22:57.528Z,92663.00
2023-06-11T00:23:57.607Z,92659.00
2023-06-11T00:24:57.617Z,92663.00
2023-06-11T00:25:57.675Z,92659.00
2023-06-11T00:26:57.721Z,92659.00
2023-06-11T00:27:57.785Z,92657.00
2023-06-11T00:28:57.835Z,92657.00
2023-06-11T00:29:57.900Z,92657.00
2023-06-11T00:30:57.960Z,92657.00
2023-06-11T00:31:58.091Z,92657.00
2023-06-11T00:32:58.136Z,92659.00
2023-06-11T00:33:58.119Z,92659.00
2023-06-11T00:34:58.183Z,92657.00
2023-06-11T00:35:58.320Z,92659.00
2023-06-11T00:36:58.414Z,92659.00
2023-06-11T00:37:58.376Z,92659.00
2023-06-11T00:38:58.405Z,92659.00
2023-06-11T00:39:58.524Z,92661.00
2023-06-11T00:40:58.637Z,92659.00
2023-06-11T00:41:58.588Z,92659.00
2023-06-11T00:42:58.642Z,92659.00
2023-06-11T00:43:58.705Z,92661.00
2023-06-11T00:44:58.756Z,92661.00
2023-06-11T00:45:58.901Z,92661.00
2023-06-11T00:46:58.868Z,92659.00
2023-06-11T00:47:58.931Z,92661.00
2023-06-11T00:48:58.970Z,92653.00
2023-06-11T00:49:59.033Z,92653.00
2023-06-11T00:50:59.099Z,92659.00
2023-06-11T00:51:59.153Z,92651.00
2023-06-11T00:52:59.211Z,92651.00
2023-06-11T00:53:59.269Z,92649.00
2023-06-11T00:54:59.853Z,92653.00
2023-06-11T00:55:59.400Z,92653.00
2023-06-11T00:57:00.373Z,92653.00
2023-06-11T00:57:59.511Z,92655.00
2023-06-11T00:58:59.661Z,92657.00
2023-06-11T00:59:59.641Z,92657.00
2023-06-11T01:00:59.757Z,92659.00
2023-06-11T01:01:59.755Z,92661.00
2023-06-11T01:02:59.844Z,92665.00
2023-06-11T01:03:59.934Z,92665.00
2023-06-11T01:05:00.072Z,92665.00
2023-06-11T01:05:59.993Z,92669.00
2023-06-11T01:07:00.047Z,92671.00
2023-06-11T01:08:00.137Z,92671.00
2023-06-11T01:09:00.802Z,92673.00
2023-06-11T01:10:00.224Z,92671.00
2023-06-11T01:11:00.284Z,92671.00
2023-06-11T01:12:00.334Z,92673.00
2023-06-11T01:13:00.386Z,92671.00
2023-06-11T01:14:00.450Z,92673.00
2023-06-11T01:15:00.526Z,92671.00
2023-06-11T01:16:00.569Z,92669.00
2023-06-11T01:17:00.684Z,92667.00
2023-06-11T01:18:00.746Z,92667.00
2023-06-11T01:19:00.748Z,92667.00
2023-06-11T01:20:00.807Z,92669.00
2023-06-11T01:21:00.875Z,92669.00
2023-06-11T01:22:00.927Z,92669.00
2023-06-11T01:23:00.992Z,92671.00
2023-06-11T01:24:01.099Z,92671.00
2023-06-11T01:25:01.106Z,92675.00
2023-06-11T01:26:01.194Z,92675.00
2023-06-11T01:27:01.223Z,92673.00
2023-06-11T01:28:01.335Z,92677.00
2023-06-11T01:29:01.329Z,92679.00
2023-06-11T01:30:01.471Z,92679.00
2023-06-11T01:31:01.474Z,92679.00
2023-06-11T01:32:01.496Z,92679.00
2023-06-11T01:33:01.623Z,92677.00
2023-06-11T01:34:01.615Z,92675.00
2023-06-11T01:35:01.749Z,92675.00
2023-06-11T01:36:01.792Z,92675.00
2023-06-11T01:37:01.796Z,92673.00
2023-06-11T01:38:01.853Z,92673.00
2023-06-11T01:39:01.919Z,92671.00
2023-06-11T01:40:01.972Z,92671.00
2023-06-11T01:41:02.034Z,92675.00
2023-06-11T01:42:02.094Z,92673.00
2023-06-11T01:43:02.151Z,92675.00
2023-06-11T01:44:02.223Z,92677.00
2023-06-11T01:45:02.335Z,92681.00
2023-06-11T01:46:02.850Z,92681.00
2023-06-11T01:47:02.425Z,92687.00
2023-06-11T01:48:02.474Z,92685.00
2023-06-11T01:49:02.494Z,92685.00
2023-06-11T01:50:02.648Z,92685.00
2023-06-11T01:51:02.615Z,92687.00
2023-06-11T01:52:02.672Z,92687.00
2023-06-11T01:53:02.731Z,92687.00
2023-06-11T01:54:02.787Z,92689.00
2023-06-11T01:55:02.904Z,92687.00
2023-06-11T01:56:02.888Z,92689.00
2023-06-11T01:57:02.975Z,92689.00
2023-06-11T01:58:02.990Z,92689.00
2023-06-11T01:59:03.030Z,92691.00
2023-06-11T02:00:03.045Z,92687.00
2023-06-11T02:01:03.099Z,92687.00
2023-06-11T02:02:03.206Z,92687.00
2023-06-11T02:03:03.377Z,92689.00
2023-06-11T02:04:03.287Z,92691.00
2023-06-11T02:05:03.305Z,92689.00
2023-06-11T02:06:03.842Z,92689.00
2023-06-11T02:07:03.375Z,92687.00
2023-06-11T02:08:03.404Z,92687.00
2023-06-11T02:09:03.518Z,92681.00
2023-06-11T02:10:03.559Z,92681.00
2023-06-11T02:11:03.465Z,92683.00
2023-06-11T02:12:03.476Z,92677.00
2023-06-11T02:13:03.516Z,92679.00
2023-06-11T02:14:04.335Z,92677.00
2023-06-11T02:15:03.601Z,92679.00
2023-06-11T02:16:03.679Z,92679.00
2023-06-11T02:17:03.712Z,92679.00
2023-06-11T02:18:03.899Z,92679.00
2023-06-11T02:19:03.847Z,92681.00
2023-06-11T02:20:04.825Z,92683.00
2023-06-11T02:21:03.965Z,92683.00
2023-06-11T02:22:04.006Z,92685.00
2023-06-11T02:23:04.045Z,92687.00
2023-06-11T02:24:04.227Z,92687.00
2023-06-11T02:25:04.152Z,92689.00
2023-06-11T02:26:04.186Z,92689.00
2023-06-11T02:27:04.212Z,92689.00
2023-06-11T02:28:04.247Z,92689.00
2023-06-11T02:29:04.300Z,92693.00
2023-06-11T02:30:04.362Z,92694.00
2023-06-11T02:31:04.406Z,92693.00
2023-06-11T02:32:04.495Z,92694.00
2023-06-11T02:33:04.619Z,92693.00
2023-06-11T02:34:04.566Z,92696.00
2023-06-11T02:35:04.853Z,92693.00
2023-06-11T02:36:04.655Z,92694.00
2023-06-11T02:37:04.699Z,92694.00
2023-06-11T02:38:04.702Z,92694.00
2023-06-11T02:39:04.731Z,92693.00
2023-06-11T02:40:04.762Z,92693.00
2023-06-11T02:41:04.765Z,92694.00
2023-06-11T02:42:04.780Z,92696.00
2023-06-11T02:43:04.804Z,92696.00
2023-06-11T02:44:04.853Z,92694.00
2023-06-11T02:45:04.885Z,92696.00
2023-06-11T02:46:04.968Z,92694.00
2023-06-11T02:47:04.968Z,92696.00
2023-06-11T02:48:05.075Z,92698.00
2023-06-11T02:49:05.043Z,92696.00
2023-06-11T02:50:05.087Z,92698.00
2023-06-11T02:51:05.143Z,92700.00
2023-06-11T02:52:05.168Z,92698.00
2023-06-11T02:53:05.216Z,92696.00
2023-06-11T02:54:05.249Z,92700.00
2023-06-11T02:55:05.267Z,92694.00
2023-06-11T02:56:05.293Z,92700.00
2023-06-11T02:57:05.337Z,92698.00
2023-06-11T02:58:05.403Z,92700.00
2023-06-11T02:59:05.446Z,92700.00
2023-06-11T03:00:05.488Z,92702.00
2023-06-11T03:01:05.520Z,92706.00
2023-06-11T03:02:05.510Z,92704.00
2023-06-11T03:03:05.565Z,92708.00
2023-06-11T03:04:05.516Z,92708.00
2023-06-11T03:05:05.543Z,92708.00
2023-06-11T03:06:05.572Z,92706.00
2023-06-11T03:07:05.657Z,92702.00
2023-06-11T03:08:05.612Z,92706.00
2023-06-11T03:09:05.654Z,92706.00
2023-06-11T03:10:05.673Z,92700.00
2023-06-11T03:11:05.699Z,92700.00
2023-06-11T03:12:05.716Z,92698.00
2023-06-11T03:13:05.717Z,92698.00
2023-06-11T03:14:05.743Z,92698.00
2023-06-11T03:15:05.763Z,92698.00
2023-06-11T03:16:05.859Z,92700.00
2023-06-11T03:17:05.819Z,92700.00
2023-06-11T03:18:05.919Z,92698.00
2023-06-11T03:19:05.902Z,92702.00
2023-06-11T03:20:05.965Z,92702.00
2023-06-11T03:21:05.992Z,92700.00
2023-06-11T03:22:06.023Z,92704.00
2023-06-11T03:23:06.067Z,92702.00
2023-06-11T03:24:06.224Z,92700.00
2023-06-11T03:25:06.164Z,92698.00
2023-06-11T03:26:06.207Z,92696.00
2023-06-11T03:27:06.248Z,92696.00
2023-06-11T03:28:06.278Z,92696.00
2023-06-11T03:29:06.309Z,92696.00
2023-06-11T03:30:06.338Z,92698.00
2023-06-11T03:31:06.397Z,92698.00
2023-06-11T03:32:06.460Z,92700.00
2023-06-11T03:33:06.516Z,92694.00
2023-06-11T03:34:06.470Z,92700.00
2023-06-11T03:35:06.483Z,92702.00
2023-06-11T03:36:06.508Z,92702.00
2023-06-11T03:37:06.504Z,92702.00
2023-06-11T03:38:06.502Z,92704.00
2023-06-11T03:39:06.510Z,92698.00
2023-06-11T03:40:06.491Z,92704.00
2023-06-11T03:41:07.362Z,92706.00
2023-06-11T03:42:06.491Z,92704.00
2023-06-11T03:43:06.471Z,92706.00
2023-06-11T03:44:06.474Z,92700.00
2023-06-11T03:45:06.496Z,92706.00
2023-06-11T03:46:06.497Z,92702.00
2023-06-11T03:47:06.571Z,92702.00
2023-06-11T03:48:06.576Z,92704.00
2023-06-11T03:49:06.559Z,92704.00
2023-06-11T03:50:06.655Z,92706.00
2023-06-11T03:51:06.580Z,92706.00
2023-06-11T03:52:06.660Z,92706.00
2023-06-11T03:53:06.585Z,92706.00
2023-06-11T03:54:06.606Z,92706.00
2023-06-11T03:55:06.633Z,92708.00
2023-06-11T03:56:06.634Z,92704.00
2023-06-11T03:57:06.645Z,92706.00
2023-06-11T03:58:06.670Z,92704.00
2023-06-11T03:59:06.743Z,92702.00
2023-06-11T04:00:06.674Z,92704.00
2023-06-11T04:01:06.697Z,92702.00
2023-06-11T04:02:06.708Z,92706.00
2023-06-11T04:03:07.501Z,92706.00
2023-06-11T04:04:06.795Z,92706.00
2023-06-11T04:05:06.728Z,92706.00
2023-06-11T04:06:06.728Z,92708.00
2023-06-11T04:07:06.767Z,92704.00
2023-06-11T04:08:06.724Z,92708.00
2023-06-11T04:09:06.732Z,92706.00
2023-06-11T04:10:06.773Z,92710.00
2023-06-11T04:11:06.871Z,92708.00
2023-06-11T04:12:06.768Z,92708.00
2023-06-11T04:13:06.808Z,92706.00
2023-06-11T04:14:06.769Z,92708.00
2023-06-11T04:15:06.795Z,92708.00
2023-06-11T04:16:07.414Z,92708.00
2023-06-11T04:17:06.823Z,92708.00
2023-06-11T04:18:06.930Z,92710.00
2023-06-11T04:19:06.818Z,92710.00
2023-06-11T04:20:06.820Z,92712.00
2023-06-11T04:21:06.842Z,92714.00
2023-06-11T04:22:06.862Z,92714.00
2023-06-11T04:23:06.922Z,92714.00
2023-06-11T04:24:09.505Z,92716.00
2023-06-11T04:25:06.866Z,92716.00
2023-06-11T04:26:06.872Z,92716.00
2023-06-11T04:27:06.842Z,92716.00
2023-06-11T04:28:06.832Z,92718.00
2023-06-11T04:29:06.827Z,92718.00
2023-06-11T04:30:06.808Z,92716.00
2023-06-11T04:31:06.806Z,92718.00
2023-06-11T04:32:06.781Z,92722.00
2023-06-11T04:33:06.855Z,92724.00
2023-06-11T04:34:06.758Z,92724.00
2023-06-11T04:35:06.756Z,92726.00
2023-06-11T04:36:06.744Z,92722.00
2023-06-11T04:37:06.737Z,92724.00
2023-06-11T04:38:06.715Z,92724.00
2023-06-11T04:39:06.697Z,92722.00
2023-06-11T04:40:06.894Z,92722.00
2023-06-11T04:41:06.703Z,92722.00
2023-06-11T04:42:06.721Z,92718.00
2023-06-11T04:43:06.657Z,92720.00
2023-06-11T04:44:06.696Z,92722.00
2023-06-11T04:45:06.638Z,92722.00
2023-06-11T04:46:06.673Z,92722.00
2023-06-11T04:47:07.459Z,92722.00
2023-06-11T04:48:06.661Z,92722.00
2023-06-11T04:49:06.606Z,92726.00
2023-06-11T04:50:06.661Z,92722.00
2023-06-11T04:51:06.595Z,92722.00
2023-06-11T04:52:06.586Z,92724.00
2023-06-11T04:53:06.586Z,92720.00
2023-06-11T04:54:06.590Z,92722.00
2023-06-11T04:55:06.566Z,92720.00
2023-06-11T04:56:06.578Z,92718.00
2023-06-11T04:57:06.551Z,92718.00
2023-06-11T04:58:06.553Z,92716.00
2023-06-11T04:59:06.538Z,92714.00
2023-06-11T05:00:06.550Z,92716.00
2023-06-11T05:01:06.525Z,92714.00
2023-06-11T05:02:06.537Z,92712.00
2023-06-11T05:03:06.542Z,92716.00
2023-06-11T05:04:06.491Z,92718.00
2023-06-11T05:05:06.555Z,92716.00
2023-06-11T05:06:06.545Z,92716.00
2023-06-11T05:07:06.589Z,92718.00
2023-06-11T05:08:06.461Z,92720.00
2023-06-11T05:09:06.457Z,92718.00
2023-06-11T05:10:06.447Z,92718.00
2023-06-11T05:11:06.431Z,92718.00
2023-06-11T05:12:06.422Z,92720.00
2023-06-11T05:13:06.432Z,92720.00
2023-06-11T05:14:06.397Z,92720.00
2023-06-11T05:15:06.396Z,92720.00
2023-06-11T05:16:06.406Z,92720.00
2023-06-11T05:17:06.379Z,92718.00
2023-06-11T05:18:06.451Z,92716.00
2023-06-11T05:19:06.914Z,92718.00
2023-06-11T05:20:06.352Z,92718.00
2023-06-11T05:21:06.328Z,92716.00
2023-06-11T05:22:06.362Z,92714.00
2023-06-11T05:23:06.318Z,92714.00
2023-06-11T05:24:06.433Z,92714.00
2023-06-11T05:25:06.360Z,92712.00
2023-06-11T05:26:06.314Z,92712.00
2023-06-11T05:27:06.307Z,92712.00
2023-06-11T05:28:06.308Z,92714.00
2023-06-11T05:29:06.301Z,92712.00
2023-06-11T05:30:06.324Z,92712.00
2023-06-11T05:31:06.282Z,92710.00
2023-06-11T05:32:06.389Z,92710.00
2023-06-11T05:33:06.355Z,92708.00
2023-06-11T05:34:06.283Z,92708.00
2023-06-11T05:35:06.283Z,92708.00
2023-06-11T05:36:06.338Z,92706.00
2023-06-11T05:37:06.269Z,92704.00
2023-06-11T05:38:06.290Z,92706.00
2023-06-11T05:39:06.247Z,92706.00
2023-06-11T05:40:06.263Z,92706.00
2023-06-11T05:41:06.268Z,92706.00
2023-06-11T05:42:06.242Z,92708.00
2023-06-11T05:43:06.259Z,92706.00
2023-06-11T05:44:06.236Z,92708.00
2023-06-11T05:45:06.241Z,92704.00
2023-06-11T05:46:06.302Z,92706.00
2023-06-11T05:47:06.331Z,92710.00
2023-06-11T05:48:06.355Z,92706.00
2023-06-11T05:49:06.376Z,92708.00
2023-06-11T05:50:06.446Z,92704.00
2023-06-11T05:51:06.470Z,92708.00
2023-06-11T05:52:06.523Z,92708.00
2023-06-11T05:53:06.534Z,92708.00
2023-06-11T05:54:06.554Z,92714.00
2023-06-11T05:55:06.605Z,92712.00
2023-06-11T05:56:06.688Z,92712.00
2023-06-11T05:57:06.616Z,92710.00
2023-06-11T05:58:06.627Z,92710.00
2023-06-11T05:59:06.621Z,92706.00
2023-06-11T06:00:06.962Z,92706.00
2023-06-11T06:01:06.704Z,92706.00
2023-06-11T06:02:06.707Z,92704.00
2023-06-11T06:03:06.768Z,92704.00
2023-06-11T06:04:06.982Z,92704.00
2023-06-11T06:05:07.001Z,92702.00
2023-06-11T06:06:07.426Z,92704.00
2023-06-11T06:07:06.788Z,92706.00
2023-06-11T06:08:06.866Z,92708.00
2023-06-11T06:09:06.812Z,92708.00
2023-06-11T06:10:06.819Z,92706.00
2023-06-11T06:11:06.834Z,92708.00
2023-06-11T06:12:06.842Z,92708.00
2023-06-11T06:13:06.920Z,92706.00
2023-06-11T06:14:06.821Z,92710.00
2023-06-11T06:15:06.819Z,92708.00
2023-06-11T06:16:06.853Z,92708.00
2023-06-11T06:17:06.798Z,92708.00
2023-06-11T06:18:06.856Z,92708.00
2023-06-11T06:19:06.818Z,92708.00
2023-06-11T06:20:06.819Z,92706.00
2023-06-11T06:21:06.828Z,92706.00
2023-06-11T06:22:06.843Z,92706.00
2023-06-11T06:23:06.939Z,92706.00
2023-06-11T06:24:06.934Z,92706.00
2023-06-11T06:25:06.916Z,92710.00
2023-06-11T06:26:06.939Z,92708.00
2023-06-11T06:27:06.946Z,92710.00
2023-06-11T06:28:06.975Z,92708.00
2023-06-11T06:29:06.972Z,92710.00
2023-06-11T06:30:07.024Z,92706.00
2023-06-11T06:31:07.000Z,92708.00
2023-06-11T06:32:07.084Z,92706.00
2023-06-11T06:33:07.040Z,92708.00
2023-06-11T06:34:07.040Z,92710.00
2023-06-11T06:35:07.047Z,92708.00
2023-06-11T06:36:07.070Z,92704.00
2023-06-11T06:37:07.110Z,92708.00
2023-06-11T06:38:07.141Z,92704.00
2023-06-11T06:39:07.143Z,92708.00
2023-06-11T06:40:07.164Z,92708.00
2023-06-11T06:41:07.198Z,92704.00
2023-06-11T06:42:07.189Z,92706.00
2023-06-11T06:43:07.221Z,92706.00
2023-06-11T06:44:07.240Z,92706.00
2023-06-11T06:45:07.267Z,92706.00
2023-06-11T06:46:07.319Z,92704.00
2023-06-11T06:47:07.290Z,92706.00
2023-06-11T06:48:07.491Z,92702.00
2023-06-11T06:49:07.341Z,92702.00
2023-06-11T06:50:07.362Z,92704.00
2023-06-11T06:51:07.357Z,92700.00
2023-06-11T06:52:07.355Z,92700.00
2023-06-11T06:53:07.365Z,92698.00
2023-06-11T06:54:07.405Z,92700.00
2023-06-11T06:55:07.364Z,92698.00
2023-06-11T06:56:07.429Z,92696.00
2023-06-11T06:57:07.344Z,92694.00
2023-06-11T06:58:07.339Z,92696.00
2023-06-11T06:59:07.359Z,92694.00
2023-06-11T07:00:07.336Z,92694.00
2023-06-11T07:01:07.382Z,92694.00
2023-06-11T07:02:09.720Z,92693.00
2023-06-11T07:03:07.454Z,92691.00
2023-06-11T07:04:07.328Z,92689.00
2023-06-11T07:05:07.299Z,92687.00
2023-06-11T07:06:07.375Z,92683.00
2023-06-11T07:07:07.280Z,92683.00
2023-06-11T07:08:07.256Z,92683.00
2023-06-11T07:09:07.240Z,92679.00
2023-06-11T07:10:07.252Z,92681.00
2023-06-11T07:11:07.214Z,92679.00
2023-06-11T07:12:07.206Z,92679.00
2023-06-11T07:13:07.205Z,92679.00
2023-06-11T07:14:07.237Z,92679.00
2023-06-11T07:15:07.163Z,92677.00
2023-06-11T07:16:07.154Z,92677.00
2023-06-11T07:17:07.219Z,92677.00
2023-06-11T07:18:07.162Z,92677.00
2023-06-11T07:19:07.124Z,92677.00
2023-06-11T07:20:07.176Z,92675.00
2023-06-11T07:21:07.103Z,92673.00
2023-06-11T07:22:07.115Z,92675.00
2023-06-11T07:23:07.156Z,92673.00
2023-06-11T07:24:07.194Z,92669.00
2023-06-11T07:25:07.094Z,92669.00
2023-06-11T07:26:07.074Z,92665.00
2023-06-11T07:27:07.059Z,92665.00
2023-06-11T07:28:07.045Z,92665.00
2023-06-11T07:29:07.030Z,92663.00
2023-06-11T07:30:07.019Z,92661.00
2023-06-11T07:31:07.053Z,92665.00
2023-06-11T07:32:06.997Z,92663.00
2023-06-11T07:33:07.033Z,92665.00
2023-06-11T07:34:06.982Z,92661.00
2023-06-11T07:35:06.991Z,92663.00
2023-06-11T07:36:06.954Z,92661.00
2023-06-11T07:37:06.945Z,92661.00
2023-06-11T07:38:06.928Z,92661.00
2023-06-11T07:39:06.923Z,92659.00
2023-06-11T07:40:06.910Z,92661.00
2023-06-11T07:41:06.900Z,92659.00
2023-06-11T07:42:06.881Z,92657.00
2023-06-11T07:43:06.875Z,92657.00
2023-06-11T07:44:06.867Z,92657.00
2023-06-11T07:45:06.850Z,92659.00
2023-06-11T07:46:06.884Z,92657.00
2023-06-11T07:47:06.836Z,92655.00
2023-06-11T07:48:06.826Z,92653.00
2023-06-11T07:49:06.871Z,92653.00
2023-06-11T07:50:06.794Z,92653.00
2023-06-11T07:51:06.877Z,92649.00
2023-06-11T07:52:06.766Z,92647.00
2023-06-11T07:53:06.772Z,92647.00
2023-06-11T07:54:06.741Z,92649.00
2023-06-11T07:55:06.730Z,92646.00
2023-06-11T07:56:06.732Z,92647.00
2023-06-11T07:57:08.485Z,92647.00
2023-06-11T07:58:06.700Z,92644.00
2023-06-11T07:59:06.690Z,92644.00
2023-06-11T08:00:06.676Z,92644.00
2023-06-11T08:01:06.676Z,92644.00
2023-06-11T08:02:06.741Z,92642.00
2023-06-11T08:03:06.693Z,92640.00
2023-06-11T08:04:07.488Z,92642.00
2023-06-11T08:05:06.633Z,92640.00
2023-06-11T08:06:06.650Z,92640.00
2023-06-11T08:07:06.602Z,92636.00
2023-06-11T08:08:06.607Z,92636.00
2023-06-11T08:09:06.590Z,92634.00
2023-06-11T08:10:06.995Z,92632.00
2023-06-11T08:11:06.586Z,92630.00
2023-06-11T08:12:06.529Z,92632.00
2023-06-11T08:13:06.516Z,92630.00
2023-06-11T08:14:06.489Z,92632.00
2023-06-11T08:15:06.502Z,92626.00
2023-06-11T08:16:06.551Z,92626.00
2023-06-11T08:17:06.533Z,92624.00
2023-06-11T08:18:06.441Z,92626.00
2023-06-11T08:19:06.407Z,92624.00
2023-06-11T08:20:06.424Z,92622.00
2023-06-11T08:21:06.390Z,92622.00
2023-06-11T08:22:06.386Z,92618.00
2023-06-11T08:23:06.493Z,92618.00
2023-06-11T08:24:06.410Z,92618.00
2023-06-11T08:25:06.334Z,92618.00
2023-06-11T08:26:06.329Z,92616.00
2023-06-11T08:27:06.312Z,92616.00
2023-06-11T08:28:06.293Z,92614.00
2023-06-11T08:29:06.283Z,92614.00
2023-06-11T08:30:06.279Z,92610.00
2023-06-11T08:31:06.248Z,92612.00
2023-06-11T08:32:06.253Z,92612.00
2023-06-11T08:33:06.254Z,92610.00
2023-06-11T08:34:06.218Z,92606.00
2023-06-11T08:35:06.213Z,92606.00
2023-06-11T08:36:06.214Z,92606.00
2023-06-11T08:37:06.243Z,92604.00
2023-06-11T08:38:06.268Z,92598.00
2023-06-11T08:39:06.373Z,92602.00
2023-06-11T08:40:06.379Z,92600.00
2023-06-11T08:41:06.453Z,92598.00
2023-06-11T08:42:06.498Z,92600.00
2023-06-11T08:43:06.597Z,92600.00
2023-06-11T08:44:06.618Z,92600.00
2023-06-11T08:45:06.678Z,92600.00
2023-06-11T08:46:06.805Z,92600.00
2023-06-11T08:47:06.818Z,92598.00
2023-06-11T08:48:06.899Z,92598.00
2023-06-11T08:49:06.863Z,92596.00
2023-06-11T08:50:06.937Z,92594.00
2023-06-11T08:51:06.954Z,92592.00
2023-06-11T08:52:07.019Z,92589.00
2023-06-11T08:53:07.060Z,92591.00
2023-06-11T08:54:07.189Z,92591.00
2023-06-11T08:55:07.154Z,92589.00
2023-06-11T08:56:07.505Z,92587.00
2023-06-11T08:57:07.265Z,92585.00
2023-06-11T08:58:07.323Z,92585.00
2023-06-11T08:59:07.399Z,92577.00
2023-06-11T09:00:07.510Z,92587.00
2023-06-11T09:01:07.587Z,92575.00
2023-06-11T09:02:07.586Z,92575.00
2023-06-11T09:03:07.657Z,92577.00
2023-06-11T09:04:07.738Z,92571.00
2023-06-11T09:05:07.710Z,92575.00
2023-06-11T09:06:07.844Z,92571.00
2023-06-11T09:07:07.824Z,92569.00
2023-06-11T09:08:07.893Z,92571.00
2023-06-11T09:09:07.962Z,92573.00
2023-06-11T09:10:08.113Z,92569.00
2023-06-11T09:11:08.078Z,92573.00
2023-06-11T09:12:08.190Z,92571.00
2023-06-11T09:13:08.195Z,92573.00
2023-06-11T09:14:08.249Z,92575.00
2023-06-11T09:15:08.336Z,92573.00
2023-06-11T09:16:08.407Z,92573.00
2023-06-11T09:17:08.436Z,92575.00
2023-06-11T09:18:09.911Z,92575.00
2023-06-11T09:19:08.552Z,92573.00
2023-06-11T09:20:08.789Z,92573.00
2023-06-11T09:21:09.018Z,92571.00
2023-06-11T09:22:08.730Z,92571.00
2023-06-11T09:23:08.800Z,92571.00
2023-06-11T09:24:08.927Z,92571.00
2023-06-11T09:25:09.147Z,92573.00
2023-06-11T09:26:08.964Z,92569.00
2023-06-11T09:27:09.031Z,92567.00
2023-06-11T09:28:09.095Z,92569.00
2023-06-11T09:29:09.151Z,92569.00
2023-06-11T09:30:09.654Z,92569.00
2023-06-11T09:31:09.300Z,92569.00
2023-06-11T09:32:23.833Z,92569.00
2023-06-11T09:33:10.375Z,92567.00
2023-06-11T09:34:09.343Z,92569.00
2023-06-11T09:35:09.336Z,92567.00
2023-06-11T09:36:09.304Z,92569.00
2023-06-11T09:37:09.292Z,92569.00
2023-06-11T09:38:09.284Z,92569.00
2023-06-11T09:39:09.338Z,92569.00
2023-06-11T09:40:09.473Z,92565.00
2023-06-11T09:41:09.264Z,92567.00
2023-06-11T09:42:10.075Z,92565.00
2023-06-11T09:43:09.368Z,92563.00
2023-06-11T09:44:09.450Z,92563.00
2023-06-11T09:45:09.591Z,92567.00
2023-06-11T09:46:09.596Z,92563.00
2023-06-11T09:47:10.619Z,92565.00
2023-06-11T09:48:09.709Z,92565.00
2023-06-11T09:49:09.731Z,92563.00
2023-06-11T09:50:10.100Z,92563.00
2023-06-11T09:51:10.038Z,92563.00
2023-06-11T09:52:09.904Z,92563.00
2023-06-11T09:53:09.963Z,92563.00
2023-06-11T09:54:10.055Z,92563.00
2023-06-11T09:55:10.078Z,92569.00
2023-06-11T09:56:12.044Z,92571.00
2023-06-11T09:57:10.193Z,92563.00
2023-06-11T09:58:10.255Z,92563.00
2023-06-11T09:59:10.319Z,92563.00
2023-06-11T10:00:10.658Z,92561.00
2023-06-11T10:01:10.450Z,92561.00
2023-06-11T10:02:10.481Z,92561.00
2023-06-11T10:03:10.680Z,92563.00
2023-06-11T10:04:10.669Z,92563.00
2023-06-11T10:05:10.713Z,92561.00
2023-06-11T10:06:10.708Z,92561.00
2023-06-11T10:07:10.749Z,92561.00
2023-06-11T10:08:10.818Z,92559.00
2023-06-11T10:09:10.947Z,92559.00
2023-06-11T10:10:11.149Z,92557.00
2023-06-11T10:11:10.998Z,92559.00
2023-06-11T10:12:11.060Z,92557.00
2023-06-11T10:13:11.549Z,92559.00
2023-06-11T10:14:11.183Z,92561.00
2023-06-11T10:15:11.225Z,92561.00
2023-06-11T10:16:11.330Z,92557.00
2023-06-11T10:17:11.366Z,92557.00
2023-06-11T10:18:11.470Z,92557.00
2023-06-11T10:19:11.527Z,92557.00
2023-06-11T10:20:11.687Z,92557.00
2023-06-11T10:21:11.594Z,92555.00
2023-06-11T10:22:11.655Z,92557.00
2023-06-11T10:23:11.739Z,92555.00
2023-06-11T10:24:11.788Z,92555.00
2023-06-11T10:25:11.821Z,92557.00
2023-06-11T10:26:12.000Z,92557.00
2023-06-11T10:27:11.926Z,92555.00
2023-06-11T10:28:11.998Z,92555.00
2023-06-11T10:29:12.550Z,92552.00
2023-06-11T10:30:12.355Z,92555.00
2023-06-11T10:31:12.180Z,92552.00
2023-06-11T10:32:12.220Z,92554.00
2023-06-11T10:33:12.382Z,92555.00
2023-06-11T10:34:12.390Z,92555.00
2023-06-11T10:35:12.400Z,92554.00
2023-06-11T10:36:12.443Z,92557.00
2023-06-11T10:37:12.502Z,92552.00
2023-06-11T10:38:12.534Z,92550.00
2023-06-11T10:39:12.592Z,92552.00
2023-06-11T10:40:12.865Z,92546.00
2023-06-11T10:41:13.548Z,92550.00
2023-06-11T10:42:12.739Z,92550.00
2023-06-11T10:43:12.808Z,92552.00
2023-06-11T10:44:12.846Z,92550.00
2023-06-11T10:45:12.911Z,92550.00
2023-06-11T10:46:13.129Z,92552.00
2023-06-11T10:47:13.067Z,92552.00
2023-06-11T10:48:13.199Z,92554.00
2023-06-11T10:49:13.150Z,92550.00
2023-06-11T10:50:13.322Z,92550.00
2023-06-11T10:51:13.248Z,92548.00
2023-06-11T10:52:13.306Z,92548.00
2023-06-11T10:53:13.360Z,92546.00
2023-06-11T10:54:13.409Z,92544.00
2023-06-11T10:55:13.620Z,92548.00
2023-06-11T10:56:13.549Z,92546.00
2023-06-11T10:57:13.547Z,92548.00
2023-06-11T10:58:14.319Z,92548.00
2023-06-11T10:59:13.662Z,92540.00
2023-06-11T11:00:13.835Z,92548.00
2023-06-11T11:01:13.741Z,92544.00
2023-06-11T11:02:13.862Z,92546.00
2023-06-11T11:03:14.053Z,92542.00
2023-06-11T11:04:13.964Z,92542.00
2023-06-11T11:05:14.284Z,92538.00
2023-06-11T11:06:13.953Z,92536.00
2023-06-11T11:07:13.995Z,92538.00
2023-06-11T11:08:16.821Z,92532.00
2023-06-11T11:09:14.025Z,92530.00
2023-06-11T11:10:14.036Z,92536.00
2023-06-11T11:11:14.010Z,92530.00
2023-06-11T11:12:13.990Z,92528.00
2023-06-11T11:13:13.975Z,92528.00
2023-06-11T11:14:13.967Z,92526.00
2023-06-11T11:15:14.128Z,92526.00
2023-06-11T11:16:13.985Z,92526.00
2023-06-11T11:17:13.942Z,92524.00
2023-06-11T11:18:13.934Z,92524.00
2023-06-11T11:19:16.377Z,92520.00
2023-06-11T11:20:13.994Z,92518.00
2023-06-11T11:21:13.983Z,92522.00
2023-06-11T11:22:13.897Z,92520.00
2023-06-11T11:23:13.928Z,92518.00
2023-06-11T11:24:14.049Z,92520.00
2023-06-11T11:25:14.084Z,92518.00
2023-06-11T11:26:13.850Z,92514.00
2023-06-11T11:27:13.834Z,92516.00
2023-06-11T11:28:13.831Z,92518.00
2023-06-11T11:29:13.863Z,92518.00
2023-06-11T11:30:14.017Z,92516.00
2023-06-11T11:31:13.793Z,92512.00
2023-06-11T11:32:14.838Z,92514.00
2023-06-11T11:33:13.877Z,92510.00
2023-06-11T11:34:13.814Z,92512.00
2023-06-11T11:35:13.730Z,92512.00
2023-06-11T11:36:13.721Z,92512.00
2023-06-11T11:37:13.716Z,92508.00
2023-06-11T11:38:13.706Z,92508.00
2023-06-11T11:39:13.688Z,92505.00
2023-06-11T11:40:13.970Z,92507.00
2023-06-11T11:41:13.669Z,92507.00
2023-06-11T11:42:13.651Z,92503.00
2023-06-11T11:43:13.635Z,92503.00
2023-06-11T11:44:13.631Z,92505.00
2023-06-11T11:45:13.655Z,92501.00